Latest Weather Observations for Keith West

IDS60801

Issued at 8:11 pm CDT Thursday 21 February 2019 (issued every 10 minutes, with the page automatically refreshed every 10 minutes)

About weather observations | Map of weather stations | Latest weather observations for SA | Other Formats
Station Details ID: 025557 Name: MUNKORA Lat: -36.11 Lon: 140.33 Height: 27.0 m
Data from the previous 72 hours. | See also: Recent months at Keith West
Date/Time
CDT
Temp
°C
App
Temp
°C
Dew
Point
°C
Rel
Hum
%
Delta-T
°C
Wind Press
QNH
hPa
Press
MSL
hPa
Rain since
9am
mm
Dir  Spd
km/h
Gust
km/h
Spd
kts
Gust
kts
21/08:00pm 20.2 16.3 8.8 48 6.0 SW 19 24 10 13 1019.6 1019.5 0.0
21/07:30pm 21.8 17.9 8.7 43 6.9 SW 19 26 10 14 1019.4 1019.3 0.0
21/07:00pm 23.1 19.0 8.8 40 7.6 SW 20 26 11 14 1019.2 1019.1 0.0
21/06:30pm 24.2 19.5 7.8 35 8.6 SSW 22 32 12 17 1019.0 1018.9 0.0
21/06:00pm 24.6 19.1 7.7 34 8.9 SW 26 32 14 17 1018.9 1018.8 0.0
21/05:30pm 25.1 19.2 7.7 33 9.2 SW 28 35 15 19 1018.9 1018.8 0.0
21/05:00pm 25.2 19.4 7.8 33 9.2 SW 28 37 15 20 1018.9 1018.8 0.0
21/04:30pm 26.2 23.0 5.2 26 10.7 S 11 22 6 12 1019.1 1019.0 0.0
21/04:00pm 26.2 22.0 5.7 27 10.6 SSW 17 30 9 16 1019.2 1019.1 0.0
21/03:30pm 25.7 21.9 5.8 28 10.2 S 15 24 8 13 1019.6 1019.5 0.0
21/03:00pm 25.5 21.3 5.7 28 10.1 SSW 17 24 9 13 1020.0 1019.9 0.0
21/02:30pm 24.6 21.6 5.9 30 9.5 SW 11 28 6 15 1020.5 1020.4 0.0
21/02:00pm 24.9 22.0 6.6 31 9.5 SSW 11 22 6 12 1020.7 1020.6 0.0
21/01:30pm 24.2 21.4 6.9 33 9.0 SE 11 20 6 11 1020.8 1020.7 0.0
21/01:00pm 22.6 19.3 6.4 35 8.3 SSE 13 26 7 14 1021.1 1021.0 0.0
21/12:30pm 21.8 18.5 6.5 37 7.8 S 13 20 7 11 1021.5 1021.4 0.0
21/12:00pm 21.2 18.4 7.1 40 7.2 S 11 20 6 11 1021.5 1021.4 0.0
21/11:30am 20.3 17.3 7.7 44 6.5 S 13 26 7 14 1021.8 1021.7 0.0
21/11:00am 20.0 16.9 7.4 44 6.4 SSW 13 20 7 11 1022.1 1022.0 0.0
21/10:30am 19.2 17.2 8.5 50 5.5 S 9 17 5 9 1021.9 1021.8 0.0
21/10:00am 18.1 16.0 8.1 52 5.1 SSE 9 17 5 9 1021.7 1021.6 0.0
21/09:30am 17.5 15.3 9.2 58 4.3 SE 11 20 6 11 1021.6 1021.5 0.0
21/09:00am 16.6 14.6 10.0 65 3.5 SE 11 15 6 8 1021.6 1021.5 0.0
21/08:30am 15.4 14.1 11.2 76 2.2 SSE 9 13 5 7 1021.4 1021.3 0.0
21/08:00am 13.2 12.6 11.6 90 0.9 S 6 6 3 3 1021.2 1021.1 0.0
21/07:30am 11.1 10.3 9.5 90 0.8 SSW 4 4 2 2 1020.8 1020.7 0.0
21/07:00am 9.8 9.3 7.9 88 0.9 CALM 0 0 0 0 1020.3 1020.2 0.0
21/06:30am 10.6 9.9 8.4 86 1.1 SSW 2 2 1 1 1019.7 1019.6 0.0
21/06:00am 12.6 11.6 10.3 86 1.2 S 6 7 3 4 1019.4 1019.3 0.0
21/05:30am 12.9 12.3 10.3 84 1.3 SSW 4 6 2 3 1019.2 1019.1 0.0
21/05:00am 13.5 12.7 10.9 84 1.4 SSW 6 6 3 3 1019.0 1018.9 0.0
21/04:30am 12.6 11.9 10.1 85 1.3 S 4 6 2 3 1018.9 1018.8 0.0
21/04:00am 13.3 12.8 10.7 84 1.4 SSW 4 6 2 3 1018.8 1018.7 0.0
21/03:30am 13.8 12.9 10.6 81 1.7 SSW 6 6 3 3 1018.8 1018.7 0.0
21/03:00am 15.2 14.2 11.0 76 2.2 SW 7 9 4 5 1018.9 1018.8 0.0
21/02:30am 15.6 14.8 11.6 77 2.2 SSW 7 9 4 5 1018.9 1018.8 0.0
21/02:00am 15.5 14.6 11.5 77 2.2 SSW 7 9 4 5 1019.1 1019.0 0.0
21/01:30am 15.7 14.6 11.9 78 2.1 SSW 9 13 5 7 1019.1 1019.0 0.0
21/01:00am 15.7 15.0 11.9 78 2.1 SSW 7 15 4 8 1019.2 1019.1 0.0
21/12:30am 15.5 14.3 11.5 77 2.1 SW 9 13 5 7 1019.2 1019.1 0.0
21/12:00am 15.8 14.2 11.6 76 2.3 SW 11 13 6 7 1019.1 1019.0 0.0
 
Date/Time
CDT
Temp
°C
App
Temp
°C
Dew
Point
°C
Rel
Hum
%
Delta-T
°C
Wind Press
QNH
hPa
Press
MSL
hPa
Rain since
9am
mm
Dir  Spd
km/h
Gust
km/h
Spd
kts
Gust
kts
20/11:30pm 15.8 14.6 11.6 76 2.3 SW 9 11 5 6 1019.1 1019.0 0.0
20/11:00pm 14.9 13.6 11.1 78 2.0 SW 9 13 5 7 1019.2 1019.1 0.0
20/10:30pm 14.9 13.5 10.9 77 2.1 SW 9 13 5 7 1019.4 1019.3 0.0
20/10:00pm 15.2 13.3 10.6 74 2.4 SW 11 15 6 8 1019.2 1019.1 0.0
20/09:30pm 16.0 14.1 10.5 70 2.9 WSW 11 15 6 8 1018.9 1018.8 0.0
20/09:00pm 16.7 14.0 10.3 66 3.4 SW 15 20 8 11 1018.5 1018.4 0.0
20/08:30pm 17.6 15.2 10.2 62 3.9 SW 13 17 7 9 1018.1 1018.0 0.0
20/08:00pm 18.5 14.7 9.8 57 4.6 SW 20 30 11 16 1017.9 1017.8 0.0
20/07:30pm 19.7 15.5 9.6 52 5.4 SW 22 33 12 18 1017.6 1017.5 0.0
20/07:00pm 20.4 16.2 9.9 51 5.6 SW 22 30 12 16 1017.4 1017.3 0.0
20/06:30pm 20.3 16.3 10.4 53 5.4 SW 22 32 12 17 1017.2 1017.1 0.0
20/06:00pm 21.2 17.1 11.5 54 5.4 SSW 24 32 13 17 1016.9 1016.8 0.0
20/05:30pm 21.8 17.1 10.6 49 6.1 SSW 26 35 14 19 1016.6 1016.5 0.0
20/05:00pm 22.1 17.4 10.6 48 6.3 SW 26 37 14 20 1016.3 1016.2 0.0
20/04:30pm 22.0 18.0 10.5 48 6.3 SW 22 28 12 15 1016.2 1016.1 0.0
20/04:00pm 22.6 17.8 10.4 46 6.7 SW 26 37 14 20 1016.3 1016.2 0.0
20/03:30pm 22.5 18.3 9.6 44 7.0 SW 22 33 12 18 1016.3 1016.2 0.0
20/03:00pm 23.6 19.8 11.0 45 7.0 WSW 22 32 12 17 1016.5 1016.4 0.0
20/02:30pm 23.6 19.1 9.9 42 7.5 SW 24 32 13 17 1016.7 1016.6 0.0
20/02:00pm 23.8 19.5 9.4 40 7.8 SW 22 33 12 18 1016.5 1016.4 0.0
20/01:30pm 23.5 19.3 8.4 38 8.0 WSW 20 35 11 19 1016.6 1016.5 0.0
20/01:00pm 23.4 19.0 7.5 36 8.3 WSW 20 33 11 18 1016.9 1016.8 0.0
20/12:30pm 21.0 16.7 8.0 43 6.8 WSW 20 28 11 15 1017.5 1017.4 0.0
20/12:00pm 22.4 18.5 9.6 44 6.9 SSW 20 32 11 17 1017.6 1017.5 0.0
20/11:30am 21.6 17.5 8.8 44 6.8 SW 20 32 11 17 1017.9 1017.8 0.0
20/11:00am 21.0 16.8 8.3 44 6.6 WSW 20 30 11 16 1017.9 1017.8 0.0
20/10:30am 20.1 16.0 7.8 45 6.3 WSW 19 26 10 14 1018.0 1017.9 0.0
20/10:00am 18.9 15.3 8.3 50 5.5 SW 17 24 9 13 1017.9 1017.8 0.0
20/09:30am 18.6 16.5 9.9 57 4.6 WSW 11 19 6 10 1017.9 1017.8 0.0
20/09:00am 17.9 16.6 9.8 59 4.3 W 7 13 4 7 1017.6 1017.5 0.0
20/08:30am 15.7 13.7 8.7 63 3.6 NNW 9 11 5 6 1017.4 1017.3 0.0
20/08:00am 13.7 11.2 8.1 69 2.8 NNW 11 15 6 8 1017.2 1017.1 0.0
20/07:30am 13.4 12.3 8.3 71 2.5 N 4 6 2 3 1016.9 1016.8 0.0
20/07:00am 13.0 11.8 8.1 72 2.4 NW 4 7 2 4 1016.7 1016.6 0.0
20/06:30am 12.8 12.0 8.1 73 2.3 NW 2 4 1 2 1016.5 1016.4 0.0
20/06:00am 12.6 11.4 8.1 74 2.2 NNW 4 6 2 3 1016.3 1016.2 0.0
20/05:30am 12.0 10.2 7.9 76 2.0 WNW 7 11 4 6 1016.2 1016.1 0.0
20/05:00am 11.3 9.6 7.6 78 1.8 NNE 6 7 3 4 1016.1 1016.0 0.0
20/04:30am 10.4 8.4 7.3 81 1.5 NNE 7 9 4 5 1016.1 1016.0 0.0
20/04:00am 8.6 7.2 5.7 82 1.3 N 2 9 1 5 1016.2 1016.1 0.0
20/03:30am 8.7 7.3 5.3 79 1.5 NW 2 4 1 2 1016.1 1016.0 0.0
20/03:00am 9.6 8.2 5.6 76 1.8 NW 2 4 1 2 1016.0 1015.9 0.0
20/02:30am 10.6 9.8 6.6 76 1.9 CALM 0 4 0 2 1016.2 1016.1 0.0
20/02:00am 8.6 6.6 4.6 76 1.8 WNW 4 6 2 3 1016.4 1016.3 0.0
20/01:30am 8.8 6.2 4.4 74 1.9 NW 7 9 4 5 1016.5 1016.4 0.0
20/01:00am 9.7 8.0 4.1 68 2.5 SW 2 2 1 1 1016.7 1016.6 0.0
20/12:30am 12.5 10.6 6.5 67 2.9 SW 6 7 3 4 1016.8 1016.7 0.0
20/12:00am 13.1 10.9 7.8 70 2.6 SW 9 13 5 7 1016.9 1016.8 0.0
 
Date/Time
CDT
Temp
°C
App
Temp
°C
Dew
Point
°C
Rel
Hum
%
Delta-T
°C
Wind Press
QNH
hPa
Press
MSL
hPa
Rain since
9am
mm
Dir  Spd
km/h
Gust
km/h
Spd
kts
Gust
kts
19/11:30pm 12.3 10.2 6.8 69 2.6 SW 7 9 4 5 1017.0 1016.9 0.0
19/11:00pm 12.1 9.9 6.4 68 2.7 WSW 7 9 4 5 1017.2 1017.1 0.0
19/10:30pm 11.9 9.4 4.9 62 3.2 WSW 7 7 4 4 1017.2 1017.1 0.0
19/10:00pm 13.5 11.3 6.4 62 3.4 WSW 7 9 4 5 1016.9 1016.8 0.0
19/09:30pm 14.1 11.4 5.7 57 4.0 WSW 9 11 5 6 1016.7 1016.6 0.0
19/09:00pm 15.2 12.1 5.4 52 4.6 SW 11 17 6 9 1016.5 1016.4 0.0
19/08:30pm 16.3 13.3 5.9 50 5.0 SW 11 15 6 8 1016.1 1016.0 0.0
19/08:00pm 17.2 13.0 5.8 47 5.5 SW 17 22 9 12 1015.8 1015.7 0.0
19/07:30pm 18.4 14.1 5.3 42 6.4 SW 17 24 9 13 1015.4 1015.3 0.0
19/07:00pm 19.2 13.5 4.9 39 6.9 SW 24 33 13 18 1015.2 1015.1 0.0
19/06:30pm 19.8 14.4 4.7 37 7.3 SW 22 35 12 19 1014.8 1014.7 0.0
19/06:00pm 20.8 15.5 4.8 35 7.8 SW 22 30 12 16 1014.7 1014.6 0.0
19/05:30pm 21.1 15.3 4.6 34 8.0 SW 24 37 13 20 1014.6 1014.5 0.0
19/05:00pm 22.0 16.3 5.0 33 8.4 SW 24 37 13 20 1014.5 1014.4 0.0
19/04:30pm 21.6 15.1 4.7 33 8.3 WSW 28 41 15 22 1014.5 1014.4 0.0
19/04:00pm 22.1 16.0 4.7 32 8.6 WSW 26 41 14 22 1014.6 1014.5 0.0
19/03:31pm 22.2 16.2 5.2 33 8.5 SW 26 46 14 25 1014.6 1014.5 0.0
19/03:30pm 21.9 15.8 4.9 33 8.4 SW 26 46 14 25 1014.6 1014.5 0.0
19/03:26pm 22.6 17.4 5.5 33 8.6 SW 22 46 12 25 1014.4 1014.3 0.0
19/03:00pm 23.2 17.9 5.2 31 9.0 SW 22 35 12 19 1014.5 1014.4 0.0
19/02:30pm 23.8 18.9 5.2 30 9.3 WSW 20 35 11 19 1014.7 1014.6 0.0
19/02:00pm 22.3 17.3 4.8 32 8.6 SW 20 35 11 19 1014.7 1014.6 0.0
19/01:30pm 21.9 16.6 4.9 33 8.4 SW 22 33 12 18 1014.6 1014.5 0.0
19/01:00pm 23.0 18.2 5.4 32 8.8 SW 20 32 11 17 1014.8 1014.7 0.0
19/12:30pm 21.0 16.6 5.0 35 7.9 SSW 17 24 9 13 1015.1 1015.0 0.0
19/12:00pm 21.2 16.3 5.1 35 7.9 SW 20 35 11 19 1015.4 1015.3 0.0
19/11:30am 19.9 15.1 4.8 37 7.3 SW 19 26 10 14 1015.5 1015.4 0.0
19/11:00am 20.0 14.3 4.9 37 7.4 WSW 24 37 13 20 1015.6 1015.5 0.0
19/10:30am 18.1 13.9 5.7 44 6.0 WSW 17 24 9 13 1015.7 1015.6 0.0
19/10:00am 17.6 13.9 7.9 53 4.9 SSW 17 24 9 13 1015.6 1015.5 0.0
19/09:30am 17.6 15.2 8.7 56 4.6 SSW 11 20 6 11 1015.6 1015.5 0.0
19/09:00am 16.3 14.5 8.0 58 4.2 SW 7 13 4 7 1015.4 1015.3 0.0
19/08:30am 14.9 14.4 7.9 63 3.5 CALM 0 2 0 1 1015.1 1015.0 0.0
19/08:00am 14.1 13.3 8.1 67 3.0 NW 2 6 1 3 1014.7 1014.6 0.0
19/07:30am 12.7 11.9 8.2 74 2.2 NW 2 4 1 2 1014.4 1014.3 0.0
19/07:00am 11.4 10.9 7.9 79 1.7 CALM 0 0 0 0 1014.1 1014.0 0.0
19/06:30am 10.4 9.8 7.6 83 1.3 CALM 0 0 0 0 1013.8 1013.7 0.0
19/06:00am 8.7 7.0 6.0 83 1.2 NNW 4 6 2 3 1013.8 1013.7 0.0
19/05:30am 7.9 6.7 4.8 81 1.4 CALM 0 0 0 0 1013.6 1013.5 0.0
19/05:00am 8.5 7.0 4.9 78 1.6 SW 2 2 1 1 1013.5 1013.4 0.0
19/04:30am 10.1 8.1 6.3 77 1.8 WSW 6 6 3 3 1013.6 1013.5 0.0
19/04:00am 10.3 8.2 6.6 78 1.7 WSW 7 9 4 5 1013.5 1013.4 0.0
19/03:30am 10.3 8.4 6.8 79 1.6 WSW 6 7 3 4 1013.4 1013.3 0.0
19/03:00am 9.9 8.0 6.6 80 1.5 W 6 6 3 3 1013.5 1013.4 0.0
19/02:30am 10.8 9.0 7.1 78 1.8 WSW 6 7 3 4 1013.6 1013.5 0.0
19/02:00am 10.7 8.5 6.1 73 2.1 W 7 9 4 5 1013.8 1013.7 0.0
19/01:30am 11.9 9.9 7.0 72 2.3 W 7 9 4 5 1014.1 1014.0 0.0
19/01:00am 13.0 11.1 7.5 69 2.7 W 7 7 4 4 1014.1 1014.0 0.0
19/12:30am 12.3 10.4 7.4 72 2.4 SW 7 9 4 5 1013.9 1013.8 0.0
19/12:00am 12.5 10.5 7.0 69 2.6 SW 7 9 4 5 1013.7 1013.6 0.0
 
Date/Time
CDT
Temp
°C
App
Temp
°C
Dew
Point
°C
Rel
Hum
%
Delta-T
°C
Wind Press
QNH
hPa
Press
MSL
hPa
Rain since
9am
mm
Dir  Spd
km/h
Gust
km/h
Spd
kts
Gust
kts
18/11:30pm 13.4 11.1 7.4 67 2.9 SW 9 13 5 7 1013.8 1013.7 0.0
18/11:00pm 14.6 11.6 7.9 64 3.3 SW 13 19 7 10 1013.8 1013.7 0.0
18/10:30pm 15.2 11.9 8.2 63 3.5 SW 15 20 8 11 1013.8 1013.7 0.0
18/10:00pm 15.8 13.4 8.5 62 3.7 SW 11 17 6 9 1013.5 1013.4 0.0
18/09:30pm 15.5 12.3 8.3 62 3.6 SW 15 19 8 10 1013.2 1013.1 0.0
18/09:00pm 16.0 11.9 7.7 58 4.2 SW 19 26 10 14 1012.9 1012.8 0.0
18/08:30pm 16.6 11.8 7.5 55 4.6 SW 22 30 12 16 1012.6 1012.5 0.0

Other formats

Comma delimited format used in spreadsheet applications
http://www.bom.gov.au/fwo/IDS60801/IDS60801.95815.axf

JavaScript Object Notation format (JSON) in row-major order
http://www.bom.gov.au/fwo/IDS60801/IDS60801.95815.json

Data quality

Most of these data are generated automatically and are frequently updated. Quality checks on data are not normally performed. It is possible for incorrect values to appear. Refer to information at About Latest Weather Observations and please check the disclaimer before using these data.